Betancuria — EAMH — position and weather

sailwx.info

Track history (hours):
 
Tides and Currents Weather Stations Pressure Air Temp Water Temp Dewpoint Dewpoint Depression Visibility Wind Speed Wind Dir Waves Ship Positions

Betancuria

Last reported at 2014-Aug-30 20:30 UTC. Time now 2014-Sep-22 18:16 UTC.
Position N 35°47' W 009°47'.
Warning: this ship's position is 22 days out of date.

Length 141 m; draft 4.7 m.

Type: Ship. MMSI: 224471000.

Date/timePositionNaut miles runAvg speedWind from/ knotsBaromVisibWave heightAir tempDewpointWater temp
2014-Aug-30 20:30N 35°47' W 009°47'1111.4
2014-Aug-30 19:33N 35°58' W 009°49'2311.5
2014-Aug-30 17:33N 36°21' W 009°52'14611.8
2014-Aug-30 05:12N 38°46' W 010°07'  
2014-Aug-23 22:22N 36°59' W 009°19'9 9.0
2014-Aug-23 21:21N 36°51' W 009°15'9 9.0
2014-Aug-23 20:23N 36°45' W 009°07'13 9.8
2014-Aug-23 19:05N 36°41' W 008°51'398 9.7
2014-Aug-22 02:08N 36°38' W 000°36'711.9
2014-Aug-22 01:33N 36°39' W 000°27'1211.7
2014-Aug-22 00:33N 36°41' W 000°13'1111.3
2014-Aug-21 23:33N 36°42' E 000°01'1111.6
2014-Aug-21 22:33N 36°45' E 000°15'1211.9
2014-Aug-21 21:32N 36°47' E 000°30'1212.4
2014-Aug-21 20:32N 36°48' E 000°45'1512.4
2014-Aug-21 19:22N 36°50' E 001°04'1411.9
2014-Aug-21 18:14N 36°52' E 001°20'3810.4
2014-Aug-21 14:33N 36°59' E 002°07'  
Track history (hours):
 
Tides and Currents Weather Stations Pressure Air Temp Water Temp Dewpoint Dewpoint Depression Visibility Wind Speed Wind Dir Waves Ship Positions

Betancuria

Last reported at 2014-Aug-30 20:30 UTC. Time now 2014-Sep-22 18:16 UTC.
Position N 35°47' W 009°47'.
Warning: this ship's position is 22 days out of date.

Length 141 m; draft 4.7 m.

Type: Ship. MMSI: 224471000.

Date/timePositionNaut miles runAvg speedWind from/ knotsBaromVisibWave heightAir tempDewpointWater temp
2014-Aug-30 20:30N 35°47' W 009°47'1111.4
2014-Aug-30 19:33N 35°58' W 009°49'2311.5
2014-Aug-30 17:33N 36°21' W 009°52'14611.8
2014-Aug-30 05:12N 38°46' W 010°07'  
2014-Aug-23 22:22N 36°59' W 009°19'9 9.0
2014-Aug-23 21:21N 36°51' W 009°15'9 9.0
2014-Aug-23 20:23N 36°45' W 009°07'13 9.8
2014-Aug-23 19:05N 36°41' W 008°51'398 9.7
2014-Aug-22 02:08N 36°38' W 000°36'711.9
2014-Aug-22 01:33N 36°39' W 000°27'1211.7
2014-Aug-22 00:33N 36°41' W 000°13'1111.3
2014-Aug-21 23:33N 36°42' E 000°01'1111.6
2014-Aug-21 22:33N 36°45' E 000°15'1211.9
2014-Aug-21 21:32N 36°47' E 000°30'1212.4
2014-Aug-21 20:32N 36°48' E 000°45'1512.4
2014-Aug-21 19:22N 36°50' E 001°04'1411.9
2014-Aug-21 18:14N 36°52' E 001°20'3810.4
2014-Aug-21 14:33N 36°59' E 002°07'  

Dump ship's entire track history